sensor_id;sensor_type;location;lat;lon;timestamp;temperature;humidity
51557;DHT22;38766;53.194;5.532;2023-07-31T00:00:27;18.10;99.90
51557;DHT22;38766;53.194;5.532;2023-07-31T00:02:53;18.10;99.90
51557;DHT22;38766;53.194;5.532;2023-07-31T00:05:19;18.00;99.90
51557;DHT22;38766;53.194;5.532;2023-07-31T00:07:45;18.10;99.90
51557;DHT22;38766;53.194;5.532;2023-07-31T00:10:11;18.10;99.90
51557;DHT22;38766;53.194;5.532;2023-07-31T00:12:38;18.00;99.90
51557;DHT22;38766;53.194;5.532;2023-07-31T00:15:04;18.00;99.90
51557;DHT22;38766;53.194;5.532;2023-07-31T00:17:30;18.00;99.90
51557;DHT22;38766;53.194;5.532;2023-07-31T00:19:56;18.00;99.90
51557;DHT22;38766;53.194;5.532;2023-07-31T00:22:21;18.00;99.90
51557;DHT22;38766;53.194;5.532;2023-07-31T00:24:47;18.00;99.90
51557;DHT22;38766;53.194;5.532;2023-07-31T00:27:12;18.00;99.90
51557;DHT22;38766;53.194;5.532;2023-07-31T00:29:38;17.90;99.90
51557;DHT22;38766;53.194;5.532;2023-07-31T00:32:04;17.90;99.90
51557;DHT22;38766;53.194;5.532;2023-07-31T00:34:30;17.90;99.90
51557;DHT22;38766;53.194;5.532;2023-07-31T00:36:55;17.90;99.90
51557;DHT22;38766;53.194;5.532;2023-07-31T00:39:21;17.80;99.90
51557;DHT22;38766;53.194;5.532;2023-07-31T00:41:47;17.80;99.90
51557;DHT22;38766;53.194;5.532;2023-07-31T00:44:12;17.80;99.90
51557;DHT22;38766;53.194;5.532;2023-07-31T00:46:38;17.70;99.90
51557;DHT22;38766;53.194;5.532;2023-07-31T00:49:04;17.70;99.90
51557;DHT22;38766;53.194;5.532;2023-07-31T00:51:30;17.70;99.90
51557;DHT22;38766;53.194;5.532;2023-07-31T00:53:56;17.60;99.90
51557;DHT22;38766;53.194;5.532;2023-07-31T00:56:22;17.60;99.90
51557;DHT22;38766;53.194;5.532;2023-07-31T00:58:49;17.60;99.90
51557;DHT22;38766;53.194;5.532;2023-07-31T01:01:14;17.60;99.90
51557;DHT22;38766;53.194;5.532;2023-07-31T01:03:40;17.60;99.90
51557;DHT22;38766;53.194;5.532;2023-07-31T01:08:57;17.60;99.90
51557;DHT22;38766;53.194;5.532;2023-07-31T01:11:28;17.60;99.90
51557;DHT22;38766;53.194;5.532;2023-07-31T01:13:57;17.60;99.90
51557;DHT22;38766;53.194;5.532;2023-07-31T01:16:24;17.50;99.90
51557;DHT22;38766;53.194;5.532;2023-07-31T01:18:50;17.50;99.90
51557;DHT22;38766;53.194;5.532;2023-07-31T01:21:30;17.50;99.90
51557;DHT22;38766;53.194;5.532;2023-07-31T01:26:53;17.50;99.90
51557;DHT22;38766;53.194;5.532;2023-07-31T01:29:23;17.50;99.90
51557;DHT22;38766;53.194;5.532;2023-07-31T01:31:53;17.40;99.90
51557;DHT22;38766;53.194;5.532;2023-07-31T01:34:21;17.40;99.90
51557;DHT22;38766;53.194;5.532;2023-07-31T01:36:47;17.40;99.90
51557;DHT22;38766;53.194;5.532;2023-07-31T01:39:13;17.40;99.90
51557;DHT22;38766;53.194;5.532;2023-07-31T01:41:41;17.40;99.90
51557;DHT22;38766;53.194;5.532;2023-07-31T01:44:06;17.40;99.90
51557;DHT22;38766;53.194;5.532;2023-07-31T01:46:32;17.40;99.90
51557;DHT22;38766;53.194;5.532;2023-07-31T01:48:58;17.50;99.90
51557;DHT22;38766;53.194;5.532;2023-07-31T01:51:23;17.40;99.90
51557;DHT22;38766;53.194;5.532;2023-07-31T01:53:49;17.40;99.90
51557;DHT22;38766;53.194;5.532;2023-07-31T01:56:15;17.40;99.90
51557;DHT22;38766;53.194;5.532;2023-07-31T01:58:40;17.40;99.90
51557;DHT22;38766;53.194;5.532;2023-07-31T02:01:06;17.40;99.90
51557;DHT22;38766;53.194;5.532;2023-07-31T02:03:32;17.40;99.90
51557;DHT22;38766;53.194;5.532;2023-07-31T02:05:57;17.30;99.90
51557;DHT22;38766;53.194;5.532;2023-07-31T02:08:23;17.40;99.90
51557;DHT22;38766;53.194;5.532;2023-07-31T02:10:49;17.30;99.90
51557;DHT22;38766;53.194;5.532;2023-07-31T02:13:14;17.30;99.90
51557;DHT22;38766;53.194;5.532;2023-07-31T02:15:40;17.30;99.90
51557;DHT22;38766;53.194;5.532;2023-07-31T02:18:05;17.30;99.90
51557;DHT22;38766;53.194;5.532;2023-07-31T02:20:34;17.30;99.90
51557;DHT22;38766;53.194;5.532;2023-07-31T02:23:00;17.40;99.90
51557;DHT22;38766;53.194;5.532;2023-07-31T02:25:26;17.30;99.90
51557;DHT22;38766;53.194;5.532;2023-07-31T02:27:52;17.30;99.90
51557;DHT22;38766;53.194;5.532;2023-07-31T02:30:18;17.30;99.90
51557;DHT22;38766;53.194;5.532;2023-07-31T02:32:43;17.20;99.90
51557;DHT22;38766;53.194;5.532;2023-07-31T02:35:09;17.10;99.90
51557;DHT22;38766;53.194;5.532;2023-07-31T02:37:34;17.10;99.90
51557;DHT22;38766;53.194;5.532;2023-07-31T02:40:00;17.10;99.90
51557;DHT22;38766;53.194;5.532;2023-07-31T02:42:26;17.00;99.90
51557;DHT22;38766;53.194;5.532;2023-07-31T02:44:51;17.10;99.90
51557;DHT22;38766;53.194;5.532;2023-07-31T02:47:21;17.10;99.90
51557;DHT22;38766;53.194;5.532;2023-07-31T02:49:47;17.10;99.90
51557;DHT22;38766;53.194;5.532;2023-07-31T02:52:13;17.10;99.90
51557;DHT22;38766;53.194;5.532;2023-07-31T02:54:38;17.10;99.90
51557;DHT22;38766;53.194;5.532;2023-07-31T02:57:04;17.10;99.90
51557;DHT22;38766;53.194;5.532;2023-07-31T02:59:30;17.10;99.90
51557;DHT22;38766;53.194;5.532;2023-07-31T03:01:55;17.10;99.90
51557;DHT22;38766;53.194;5.532;2023-07-31T03:04:21;17.00;99.90
51557;DHT22;38766;53.194;5.532;2023-07-31T03:06:47;17.00;99.90
51557;DHT22;38766;53.194;5.532;2023-07-31T03:09:12;17.00;99.90
51557;DHT22;38766;53.194;5.532;2023-07-31T03:11:38;17.00;99.90
51557;DHT22;38766;53.194;5.532;2023-07-31T03:14:03;17.00;99.90
51557;DHT22;38766;53.194;5.532;2023-07-31T03:16:29;17.00;99.90
51557;DHT22;38766;53.194;5.532;2023-07-31T03:18:55;16.90;99.90
51557;DHT22;38766;53.194;5.532;2023-07-31T03:21:20;16.90;99.90
51557;DHT22;38766;53.194;5.532;2023-07-31T03:23:46;16.90;99.90
51557;DHT22;38766;53.194;5.532;2023-07-31T03:26:11;16.90;99.90
51557;DHT22;38766;53.194;5.532;2023-07-31T03:28:37;16.90;99.90
51557;DHT22;38766;53.194;5.532;2023-07-31T03:31:03;17.00;99.90
51557;DHT22;38766;53.194;5.532;2023-07-31T03:33:28;17.00;99.90
51557;DHT22;38766;53.194;5.532;2023-07-31T03:35:54;17.00;99.90
51557;DHT22;38766;53.194;5.532;2023-07-31T03:38:20;17.00;99.90
51557;DHT22;38766;53.194;5.532;2023-07-31T03:40:45;17.00;99.90
51557;DHT22;38766;53.194;5.532;2023-07-31T03:43:12;17.00;99.90
51557;DHT22;38766;53.194;5.532;2023-07-31T03:45:38;17.00;99.90
51557;DHT22;38766;53.194;5.532;2023-07-31T03:48:04;17.00;99.90
51557;DHT22;38766;53.194;5.532;2023-07-31T03:50:30;17.00;99.90
51557;DHT22;38766;53.194;5.532;2023-07-31T03:52:56;17.10;99.90
51557;DHT22;38766;53.194;5.532;2023-07-31T03:55:21;17.00;99.90
51557;DHT22;38766;53.194;5.532;2023-07-31T03:57:47;17.10;99.90
51557;DHT22;38766;53.194;5.532;2023-07-31T04:00:13;17.10;99.90
51557;DHT22;38766;53.194;5.532;2023-07-31T04:02:39;17.10;99.90
51557;DHT22;38766;53.194;5.532;2023-07-31T04:05:04;17.10;99.90
51557;DHT22;38766;53.194;5.532;2023-07-31T04:07:30;17.10;99.90
51557;DHT22;38766;53.194;5.532;2023-07-31T04:09:57;17.10;99.90
51557;DHT22;38766;53.194;5.532;2023-07-31T04:12:23;17.10;99.90
51557;DHT22;38766;53.194;5.532;2023-07-31T04:14:49;17.00;99.90
51557;DHT22;38766;53.194;5.532;2023-07-31T04:17:15;17.10;99.90
51557;DHT22;38766;53.194;5.532;2023-07-31T04:19:40;17.10;99.90
51557;DHT22;38766;53.194;5.532;2023-07-31T04:22:06;17.00;99.90
51557;DHT22;38766;53.194;5.532;2023-07-31T04:24:31;17.00;99.90
51557;DHT22;38766;53.194;5.532;2023-07-31T04:26:57;17.00;99.90
51557;DHT22;38766;53.194;5.532;2023-07-31T04:29:22;17.00;99.90
51557;DHT22;38766;53.194;5.532;2023-07-31T04:31:49;17.10;99.90
51557;DHT22;38766;53.194;5.532;2023-07-31T04:34:15;17.00;99.90
51557;DHT22;38766;53.194;5.532;2023-07-31T04:36:40;17.00;99.90
51557;DHT22;38766;53.194;5.532;2023-07-31T04:39:06;17.00;99.90
51557;DHT22;38766;53.194;5.532;2023-07-31T04:41:31;17.00;99.90
51557;DHT22;38766;53.194;5.532;2023-07-31T04:43:57;17.00;99.90
51557;DHT22;38766;53.194;5.532;2023-07-31T04:46:23;17.00;99.90
51557;DHT22;38766;53.194;5.532;2023-07-31T04:48:48;17.00;99.90
51557;DHT22;38766;53.194;5.532;2023-07-31T04:51:14;17.00;99.90
51557;DHT22;38766;53.194;5.532;2023-07-31T04:53:40;17.10;99.90
51557;DHT22;38766;53.194;5.532;2023-07-31T04:56:05;17.00;99.90
51557;DHT22;38766;53.194;5.532;2023-07-31T04:58:31;17.00;99.90
51557;DHT22;38766;53.194;5.532;2023-07-31T05:00:57;17.10;99.90
51557;DHT22;38766;53.194;5.532;2023-07-31T05:03:22;17.10;99.90
51557;DHT22;38766;53.194;5.532;2023-07-31T05:05:48;17.10;99.90
51557;DHT22;38766;53.194;5.532;2023-07-31T05:08:13;17.10;99.90
51557;DHT22;38766;53.194;5.532;2023-07-31T05:10:39;17.10;99.90
51557;DHT22;38766;53.194;5.532;2023-07-31T05:13:05;17.10;99.90
51557;DHT22;38766;53.194;5.532;2023-07-31T05:15:31;17.10;99.90
51557;DHT22;38766;53.194;5.532;2023-07-31T05:17:56;17.10;99.90
51557;DHT22;38766;53.194;5.532;2023-07-31T05:20:22;17.10;99.90
51557;DHT22;38766;53.194;5.532;2023-07-31T05:22:47;17.10;99.90
51557;DHT22;38766;53.194;5.532;2023-07-31T05:25:13;17.10;99.90
51557;DHT22;38766;53.194;5.532;2023-07-31T05:27:39;17.10;99.90
51557;DHT22;38766;53.194;5.532;2023-07-31T05:30:05;17.10;99.90
51557;DHT22;38766;53.194;5.532;2023-07-31T05:32:31;17.10;99.90
51557;DHT22;38766;53.194;5.532;2023-07-31T05:34:57;17.10;99.90
51557;DHT22;38766;53.194;5.532;2023-07-31T05:37:23;17.10;99.90
51557;DHT22;38766;53.194;5.532;2023-07-31T05:39:48;17.10;99.90
51557;DHT22;38766;53.194;5.532;2023-07-31T05:42:14;17.10;99.90
51557;DHT22;38766;53.194;5.532;2023-07-31T05:44:40;17.20;99.90
51557;DHT22;38766;53.194;5.532;2023-07-31T05:47:05;17.20;99.90
51557;DHT22;38766;53.194;5.532;2023-07-31T05:49:31;17.20;99.90
51557;DHT22;38766;53.194;5.532;2023-07-31T05:51:56;17.20;99.90
51557;DHT22;38766;53.194;5.532;2023-07-31T05:54:22;17.20;99.90
51557;DHT22;38766;53.194;5.532;2023-07-31T05:56:48;17.20;99.90
51557;DHT22;38766;53.194;5.532;2023-07-31T05:59:14;17.20;99.90
51557;DHT22;38766;53.194;5.532;2023-07-31T06:01:39;17.20;99.90
51557;DHT22;38766;53.194;5.532;2023-07-31T06:04:05;17.20;99.90
51557;DHT22;38766;53.194;5.532;2023-07-31T06:06:31;17.20;99.90
51557;DHT22;38766;53.194;5.532;2023-07-31T06:08:56;17.20;99.90
51557;DHT22;38766;53.194;5.532;2023-07-31T06:11:22;17.20;99.90
51557;DHT22;38766;53.194;5.532;2023-07-31T06:13:48;17.20;99.90
51557;DHT22;38766;53.194;5.532;2023-07-31T06:16:15;17.20;99.90
51557;DHT22;38766;53.194;5.532;2023-07-31T06:18:42;17.20;99.90
51557;DHT22;38766;53.194;5.532;2023-07-31T06:21:08;17.20;99.90
51557;DHT22;38766;53.194;5.532;2023-07-31T06:23:34;17.20;99.90
51557;DHT22;38766;53.194;5.532;2023-07-31T06:26:00;17.20;99.90
51557;DHT22;38766;53.194;5.532;2023-07-31T06:28:28;17.20;99.90
51557;DHT22;38766;53.194;5.532;2023-07-31T06:31:00;17.20;99.90
51557;DHT22;38766;53.194;5.532;2023-07-31T06:33:26;17.20;99.90
51557;DHT22;38766;53.194;5.532;2023-07-31T06:35:55;17.10;99.90
51557;DHT22;38766;53.194;5.532;2023-07-31T06:38:27;17.10;99.90
51557;DHT22;38766;53.194;5.532;2023-07-31T06:40:53;17.10;99.90
51557;DHT22;38766;53.194;5.532;2023-07-31T06:43:19;17.10;99.90
51557;DHT22;38766;53.194;5.532;2023-07-31T06:45:45;17.10;99.90
51557;DHT22;38766;53.194;5.532;2023-07-31T06:48:11;17.10;99.90
51557;DHT22;38766;53.194;5.532;2023-07-31T06:50:37;17.10;99.90
51557;DHT22;38766;53.194;5.532;2023-07-31T06:53:03;17.10;99.90
51557;DHT22;38766;53.194;5.532;2023-07-31T06:55:29;17.10;99.90
51557;DHT22;38766;53.194;5.532;2023-07-31T06:57:55;17.20;99.90
51557;DHT22;38766;53.194;5.532;2023-07-31T07:00:22;17.20;99.90
51557;DHT22;38766;53.194;5.532;2023-07-31T07:02:49;17.20;99.90
51557;DHT22;38766;53.194;5.532;2023-07-31T07:05:18;17.30;99.90
51557;DHT22;38766;53.194;5.532;2023-07-31T07:07:44;17.30;99.90
51557;DHT22;38766;53.194;5.532;2023-07-31T07:10:10;17.30;99.90
51557;DHT22;38766;53.194;5.532;2023-07-31T07:12:36;17.30;99.90
51557;DHT22;38766;53.194;5.532;2023-07-31T07:15:02;17.30;99.90
51557;DHT22;38766;53.194;5.532;2023-07-31T07:17:29;17.30;99.90
51557;DHT22;38766;53.194;5.532;2023-07-31T07:19:58;17.30;99.90
51557;DHT22;38766;53.194;5.532;2023-07-31T07:22:25;17.40;99.90
51557;DHT22;38766;53.194;5.532;2023-07-31T07:24:51;17.30;99.90
51557;DHT22;38766;53.194;5.532;2023-07-31T07:27:17;17.40;99.90
51557;DHT22;38766;53.194;5.532;2023-07-31T07:29:42;17.40;99.90
51557;DHT22;38766;53.194;5.532;2023-07-31T07:32:08;17.40;99.90
51557;DHT22;38766;53.194;5.532;2023-07-31T07:34:34;17.40;99.90
51557;DHT22;38766;53.194;5.532;2023-07-31T07:36:59;17.50;99.90
51557;DHT22;38766;53.194;5.532;2023-07-31T07:39:25;17.50;99.90
51557;DHT22;38766;53.194;5.532;2023-07-31T07:41:51;17.60;99.90
51557;DHT22;38766;53.194;5.532;2023-07-31T07:44:16;17.60;99.90
51557;DHT22;38766;53.194;5.532;2023-07-31T07:46:42;17.70;99.90
51557;DHT22;38766;53.194;5.532;2023-07-31T07:49:08;17.80;99.90
51557;DHT22;38766;53.194;5.532;2023-07-31T07:51:34;17.90;99.90
51557;DHT22;38766;53.194;5.532;2023-07-31T07:54:00;17.90;99.90
51557;DHT22;38766;53.194;5.532;2023-07-31T07:56:26;17.90;99.90
51557;DHT22;38766;53.194;5.532;2023-07-31T07:58:53;18.00;99.90
51557;DHT22;38766;53.194;5.532;2023-07-31T08:01:18;18.00;99.90
51557;DHT22;38766;53.194;5.532;2023-07-31T08:03:44;18.10;99.90
51557;DHT22;38766;53.194;5.532;2023-07-31T08:06:10;18.10;99.90
51557;DHT22;38766;53.194;5.532;2023-07-31T08:08:36;18.20;99.90
51557;DHT22;38766;53.194;5.532;2023-07-31T08:11:02;18.20;99.90
51557;DHT22;38766;53.194;5.532;2023-07-31T08:13:28;18.30;99.90
51557;DHT22;38766;53.194;5.532;2023-07-31T08:15:53;18.40;99.90
51557;DHT22;38766;53.194;5.532;2023-07-31T08:18:19;18.40;99.90
51557;DHT22;38766;53.194;5.532;2023-07-31T08:20:45;18.50;99.90
51557;DHT22;38766;53.194;5.532;2023-07-31T08:23:11;18.50;99.90
51557;DHT22;38766;53.194;5.532;2023-07-31T08:25:37;18.50;99.90
51557;DHT22;38766;53.194;5.532;2023-07-31T08:28:04;18.50;99.90
51557;DHT22;38766;53.194;5.532;2023-07-31T08:30:30;18.50;99.90
51557;DHT22;38766;53.194;5.532;2023-07-31T08:32:56;18.40;99.90
51557;DHT22;38766;53.194;5.532;2023-07-31T08:35:21;18.40;99.90
51557;DHT22;38766;53.194;5.532;2023-07-31T08:37:47;18.30;99.90
51557;DHT22;38766;53.194;5.532;2023-07-31T08:40:13;18.20;99.90
51557;DHT22;38766;53.194;5.532;2023-07-31T08:42:46;18.20;99.90
51557;DHT22;38766;53.194;5.532;2023-07-31T08:45:19;18.20;99.90
51557;DHT22;38766;53.194;5.532;2023-07-31T08:47:46;18.20;99.90
51557;DHT22;38766;53.194;5.532;2023-07-31T08:50:14;18.20;99.90
51557;DHT22;38766;53.194;5.532;2023-07-31T08:52:40;18.20;99.90
51557;DHT22;38766;53.194;5.532;2023-07-31T08:55:07;18.20;99.90
51557;DHT22;38766;53.194;5.532;2023-07-31T08:57:35;18.20;99.90
51557;DHT22;38766;53.194;5.532;2023-07-31T09:00:05;18.20;99.90
51557;DHT22;38766;53.194;5.532;2023-07-31T09:02:46;18.20;99.90
51557;DHT22;38766;53.194;5.532;2023-07-31T09:05:14;18.20;99.90
51557;DHT22;38766;53.194;5.532;2023-07-31T09:07:42;18.20;99.90
51557;DHT22;38766;53.194;5.532;2023-07-31T09:10:11;18.20;99.90
51557;DHT22;38766;53.194;5.532;2023-07-31T09:12:38;18.20;99.90
51557;DHT22;38766;53.194;5.532;2023-07-31T09:15:05;18.20;99.90
51557;DHT22;38766;53.194;5.532;2023-07-31T09:17:34;18.20;99.90
51557;DHT22;38766;53.194;5.532;2023-07-31T09:20:20;18.20;99.90
51557;DHT22;38766;53.194;5.532;2023-07-31T09:22:47;18.30;99.90
51557;DHT22;38766;53.194;5.532;2023-07-31T09:25:24;18.20;99.90
51557;DHT22;38766;53.194;5.532;2023-07-31T09:27:57;18.30;99.90
51557;DHT22;38766;53.194;5.532;2023-07-31T09:30:23;18.30;99.90
51557;DHT22;38766;53.194;5.532;2023-07-31T09:32:50;18.30;99.90
51557;DHT22;38766;53.194;5.532;2023-07-31T09:35:29;18.30;99.90
51557;DHT22;38766;53.194;5.532;2023-07-31T09:38:05;18.40;99.90
51557;DHT22;38766;53.194;5.532;2023-07-31T09:40:33;18.40;99.90
51557;DHT22;38766;53.194;5.532;2023-07-31T09:43:02;18.50;99.90
51557;DHT22;38766;53.194;5.532;2023-07-31T09:45:28;18.40;99.90
51557;DHT22;38766;53.194;5.532;2023-07-31T09:47:55;18.40;99.90
51557;DHT22;38766;53.194;5.532;2023-07-31T09:50:23;18.40;99.90
51557;DHT22;38766;53.194;5.532;2023-07-31T09:52:50;18.50;99.90
51557;DHT22;38766;53.194;5.532;2023-07-31T09:55:16;18.60;99.90
51557;DHT22;38766;53.194;5.532;2023-07-31T09:57:44;18.60;99.90
51557;DHT22;38766;53.194;5.532;2023-07-31T10:00:12;18.70;99.90
51557;DHT22;38766;53.194;5.532;2023-07-31T10:02:38;18.80;99.90
51557;DHT22;38766;53.194;5.532;2023-07-31T10:05:05;18.90;99.90
51557;DHT22;38766;53.194;5.532;2023-07-31T10:07:36;19.00;99.90
51557;DHT22;38766;53.194;5.532;2023-07-31T10:10:02;19.10;99.90
51557;DHT22;38766;53.194;5.532;2023-07-31T10:12:29;19.10;99.90
51557;DHT22;38766;53.194;5.532;2023-07-31T10:14:59;19.10;99.90
51557;DHT22;38766;53.194;5.532;2023-07-31T10:17:26;19.10;99.90
51557;DHT22;38766;53.194;5.532;2023-07-31T10:19:52;19.10;99.90
51557;DHT22;38766;53.194;5.532;2023-07-31T10:22:19;19.20;99.90
51557;DHT22;38766;53.194;5.532;2023-07-31T10:24:46;19.10;99.90
51557;DHT22;38766;53.194;5.532;2023-07-31T10:27:13;19.10;99.90
51557;DHT22;38766;53.194;5.532;2023-07-31T10:29:40;19.10;99.90
51557;DHT22;38766;53.194;5.532;2023-07-31T10:32:10;19.10;99.90
51557;DHT22;38766;53.194;5.532;2023-07-31T10:34:39;19.10;99.90
51557;DHT22;38766;53.194;5.532;2023-07-31T10:37:28;19.10;99.90
51557;DHT22;38766;53.194;5.532;2023-07-31T10:42:59;19.00;99.90
51557;DHT22;38766;53.194;5.532;2023-07-31T10:45:38;19.00;99.90
51557;DHT22;38766;53.194;5.532;2023-07-31T10:48:13;19.00;99.90
51557;DHT22;38766;53.194;5.532;2023-07-31T10:50:47;19.00;99.90
51557;DHT22;38766;53.194;5.532;2023-07-31T10:53:30;19.00;99.90
51557;DHT22;38766;53.194;5.532;2023-07-31T10:56:03;19.00;99.90
51557;DHT22;38766;53.194;5.532;2023-07-31T10:58:30;19.00;99.90
51557;DHT22;38766;53.194;5.532;2023-07-31T11:01:07;19.10;99.90
51557;DHT22;38766;53.194;5.532;2023-07-31T11:03:47;19.10;99.90
51557;DHT22;38766;53.194;5.532;2023-07-31T11:06:15;19.10;99.90
51557;DHT22;38766;53.194;5.532;2023-07-31T11:08:46;19.20;99.90
51557;DHT22;38766;53.194;5.532;2023-07-31T11:11:17;19.20;99.90
51557;DHT22;38766;53.194;5.532;2023-07-31T11:13:46;19.20;99.90
51557;DHT22;38766;53.194;5.532;2023-07-31T11:16:16;19.20;99.90
51557;DHT22;38766;53.194;5.532;2023-07-31T11:18:44;19.20;99.90
51557;DHT22;38766;53.194;5.532;2023-07-31T11:21:14;19.20;99.90
51557;DHT22;38766;53.194;5.532;2023-07-31T11:23:40;19.30;99.90
51557;DHT22;38766;53.194;5.532;2023-07-31T11:26:07;19.40;99.90
51557;DHT22;38766;53.194;5.532;2023-07-31T11:28:34;19.40;99.90
51557;DHT22;38766;53.194;5.532;2023-07-31T11:31:00;19.50;99.90
51557;DHT22;38766;53.194;5.532;2023-07-31T11:33:26;19.50;99.90
51557;DHT22;38766;53.194;5.532;2023-07-31T11:35:52;19.60;99.90
51557;DHT22;38766;53.194;5.532;2023-07-31T11:38:28;19.60;99.90
51557;DHT22;38766;53.194;5.532;2023-07-31T11:40:58;19.60;99.90
51557;DHT22;38766;53.194;5.532;2023-07-31T11:43:23;19.60;99.90
51557;DHT22;38766;53.194;5.532;2023-07-31T11:45:55;19.60;99.90
51557;DHT22;38766;53.194;5.532;2023-07-31T11:48:25;19.60;99.90
51557;DHT22;38766;53.194;5.532;2023-07-31T11:50:54;19.70;99.90
51557;DHT22;38766;53.194;5.532;2023-07-31T11:55:54;19.60;99.90
51557;DHT22;38766;53.194;5.532;2023-07-31T11:58:21;19.60;99.90
51557;DHT22;38766;53.194;5.532;2023-07-31T12:00:47;19.60;99.90
51557;DHT22;38766;53.194;5.532;2023-07-31T12:03:14;19.60;99.90
51557;DHT22;38766;53.194;5.532;2023-07-31T12:05:40;19.60;99.90
51557;DHT22;38766;53.194;5.532;2023-07-31T12:08:11;19.60;99.90
51557;DHT22;38766;53.194;5.532;2023-07-31T12:10:38;19.60;99.90
51557;DHT22;38766;53.194;5.532;2023-07-31T12:13:21;19.60;99.90
51557;DHT22;38766;53.194;5.532;2023-07-31T12:15:47;19.60;99.90
51557;DHT22;38766;53.194;5.532;2023-07-31T12:18:14;19.60;99.90
51557;DHT22;38766;53.194;5.532;2023-07-31T12:20:41;19.60;99.90
51557;DHT22;38766;53.194;5.532;2023-07-31T12:23:07;19.50;99.90
51557;DHT22;38766;53.194;5.532;2023-07-31T12:25:37;19.50;99.90
51557;DHT22;38766;53.194;5.532;2023-07-31T12:28:07;19.40;99.90
51557;DHT22;38766;53.194;5.532;2023-07-31T12:30:40;19.40;99.90
51557;DHT22;38766;53.194;5.532;2023-07-31T12:33:15;19.40;99.90
51557;DHT22;38766;53.194;5.532;2023-07-31T12:35:44;19.40;99.90
51557;DHT22;38766;53.194;5.532;2023-07-31T12:38:12;19.30;99.90
51557;DHT22;38766;53.194;5.532;2023-07-31T12:40:39;19.30;99.90
51557;DHT22;38766;53.194;5.532;2023-07-31T12:43:06;19.30;99.90
51557;DHT22;38766;53.194;5.532;2023-07-31T12:45:32;19.30;99.90
51557;DHT22;38766;53.194;5.532;2023-07-31T12:47:59;19.30;99.90
51557;DHT22;38766;53.194;5.532;2023-07-31T12:50:25;19.40;99.90
51557;DHT22;38766;53.194;5.532;2023-07-31T12:52:52;19.40;99.90
51557;DHT22;38766;53.194;5.532;2023-07-31T12:55:18;19.40;99.90
51557;DHT22;38766;53.194;5.532;2023-07-31T12:57:44;19.50;99.90
51557;DHT22;38766;53.194;5.532;2023-07-31T13:00:10;19.50;99.90
51557;DHT22;38766;53.194;5.532;2023-07-31T13:02:36;19.50;99.90
51557;DHT22;38766;53.194;5.532;2023-07-31T13:05:02;19.60;99.90
51557;DHT22;38766;53.194;5.532;2023-07-31T13:07:28;19.60;99.90
51557;DHT22;38766;53.194;5.532;2023-07-31T13:09:53;19.60;99.90
51557;DHT22;38766;53.194;5.532;2023-07-31T13:12:19;19.70;99.90
51557;DHT22;38766;53.194;5.532;2023-07-31T13:14:44;19.70;99.90
51557;DHT22;38766;53.194;5.532;2023-07-31T13:17:10;19.70;99.90
51557;DHT22;38766;53.194;5.532;2023-07-31T13:19:36;19.80;99.90
51557;DHT22;38766;53.194;5.532;2023-07-31T13:22:01;19.80;99.90
51557;DHT22;38766;53.194;5.532;2023-07-31T13:24:27;19.80;99.90
51557;DHT22;38766;53.194;5.532;2023-07-31T13:26:53;19.90;99.90
51557;DHT22;38766;53.194;5.532;2023-07-31T13:29:19;19.90;99.90
51557;DHT22;38766;53.194;5.532;2023-07-31T13:31:44;19.90;99.90
51557;DHT22;38766;53.194;5.532;2023-07-31T13:34:10;19.90;99.90
51557;DHT22;38766;53.194;5.532;2023-07-31T13:36:35;19.90;99.90
51557;DHT22;38766;53.194;5.532;2023-07-31T13:39:02;19.90;99.90
51557;DHT22;38766;53.194;5.532;2023-07-31T13:41:28;19.90;99.90
51557;DHT22;38766;53.194;5.532;2023-07-31T13:43:54;19.80;99.90
51557;DHT22;38766;53.194;5.532;2023-07-31T13:46:19;19.90;99.90
51557;DHT22;38766;53.194;5.532;2023-07-31T13:48:45;19.90;99.90
51557;DHT22;38766;53.194;5.532;2023-07-31T13:51:11;19.90;99.90
51557;DHT22;38766;53.194;5.532;2023-07-31T13:53:36;19.80;99.90
51557;DHT22;38766;53.194;5.532;2023-07-31T13:56:02;19.80;99.90
51557;DHT22;38766;53.194;5.532;2023-07-31T13:58:28;19.80;99.90
51557;DHT22;38766;53.194;5.532;2023-07-31T14:00:53;19.80;99.90
51557;DHT22;38766;53.194;5.532;2023-07-31T14:03:19;19.80;99.90
51557;DHT22;38766;53.194;5.532;2023-07-31T14:05:45;19.80;99.90
51557;DHT22;38766;53.194;5.532;2023-07-31T14:08:10;19.80;99.90
51557;DHT22;38766;53.194;5.532;2023-07-31T14:10:36;19.70;99.90
51557;DHT22;38766;53.194;5.532;2023-07-31T14:13:01;19.70;99.90
51557;DHT22;38766;53.194;5.532;2023-07-31T14:15:27;19.70;99.90
51557;DHT22;38766;53.194;5.532;2023-07-31T14:17:53;19.70;99.90
51557;DHT22;38766;53.194;5.532;2023-07-31T14:20:19;19.60;99.90
51557;DHT22;38766;53.194;5.532;2023-07-31T14:22:45;19.60;99.90
51557;DHT22;38766;53.194;5.532;2023-07-31T14:25:10;19.60;99.90
51557;DHT22;38766;53.194;5.532;2023-07-31T14:27:36;19.60;99.90
51557;DHT22;38766;53.194;5.532;2023-07-31T14:30:03;19.60;99.90
51557;DHT22;38766;53.194;5.532;2023-07-31T14:32:28;19.50;99.90
51557;DHT22;38766;53.194;5.532;2023-07-31T14:34:54;19.50;99.90
51557;DHT22;38766;53.194;5.532;2023-07-31T14:37:20;19.50;99.90
51557;DHT22;38766;53.194;5.532;2023-07-31T14:39:46;19.50;99.90
51557;DHT22;38766;53.194;5.532;2023-07-31T14:42:12;19.50;99.90
51557;DHT22;38766;53.194;5.532;2023-07-31T14:44:38;19.50;99.90
51557;DHT22;38766;53.194;5.532;2023-07-31T14:47:04;19.50;99.90
51557;DHT22;38766;53.194;5.532;2023-07-31T14:49:29;19.50;99.90
51557;DHT22;38766;53.194;5.532;2023-07-31T14:51:55;19.50;99.90
51557;DHT22;38766;53.194;5.532;2023-07-31T14:54:21;19.50;99.90
51557;DHT22;38766;53.194;5.532;2023-07-31T14:56:46;19.50;99.90
51557;DHT22;38766;53.194;5.532;2023-07-31T14:59:12;19.50;99.90
51557;DHT22;38766;53.194;5.532;2023-07-31T15:01:38;19.40;99.90
51557;DHT22;38766;53.194;5.532;2023-07-31T15:04:04;19.50;99.90
51557;DHT22;38766;53.194;5.532;2023-07-31T15:06:29;19.40;99.90
51557;DHT22;38766;53.194;5.532;2023-07-31T15:08:55;19.40;99.90
51557;DHT22;38766;53.194;5.532;2023-07-31T15:11:21;19.40;99.90
51557;DHT22;38766;53.194;5.532;2023-07-31T15:13:46;19.40;99.90
51557;DHT22;38766;53.194;5.532;2023-07-31T15:16:12;19.40;99.90
51557;DHT22;38766;53.194;5.532;2023-07-31T15:18:38;19.40;99.90
51557;DHT22;38766;53.194;5.532;2023-07-31T15:21:04;19.40;99.90
51557;DHT22;38766;53.194;5.532;2023-07-31T15:23:31;19.40;99.90
51557;DHT22;38766;53.194;5.532;2023-07-31T15:25:56;19.40;99.90
51557;DHT22;38766;53.194;5.532;2023-07-31T15:28:22;19.40;99.90
51557;DHT22;38766;53.194;5.532;2023-07-31T15:30:48;19.40;99.90
51557;DHT22;38766;53.194;5.532;2023-07-31T15:33:14;19.40;99.90
51557;DHT22;38766;53.194;5.532;2023-07-31T15:35:40;19.30;99.90
51557;DHT22;38766;53.194;5.532;2023-07-31T15:38:06;19.30;99.90